sensor_id;sensor_type;location;lat;lon;timestamp;P1;durP1;ratioP1;P2;durP2;ratioP2
58731;SDS011;44508;44.626;21.182;2023-01-19T00:01:04;58.45;;;12.85;;
58731;SDS011;44508;44.626;21.182;2023-01-19T00:03:30;56.53;;;11.98;;
58731;SDS011;44508;44.626;21.182;2023-01-19T00:05:56;53.92;;;12.23;;
58731;SDS011;44508;44.626;21.182;2023-01-19T00:08:22;49.47;;;10.85;;
58731;SDS011;44508;44.626;21.182;2023-01-19T00:10:49;45.80;;;12.38;;
58731;SDS011;44508;44.626;21.182;2023-01-19T00:13:15;64.82;;;16.40;;
58731;SDS011;44508;44.626;21.182;2023-01-19T00:15:41;67.07;;;20.20;;
58731;SDS011;44508;44.626;21.182;2023-01-19T00:18:07;67.40;;;20.73;;
58731;SDS011;44508;44.626;21.182;2023-01-19T00:20:33;61.58;;;18.00;;
58731;SDS011;44508;44.626;21.182;2023-01-19T00:23:00;57.17;;;15.85;;
58731;SDS011;44508;44.626;21.182;2023-01-19T00:25:26;55.40;;;14.55;;
58731;SDS011;44508;44.626;21.182;2023-01-19T00:27:53;70.75;;;14.35;;
58731;SDS011;44508;44.626;21.182;2023-01-19T00:30:19;49.45;;;12.00;;
58731;SDS011;44508;44.626;21.182;2023-01-19T00:32:45;49.47;;;12.90;;
58731;SDS011;44508;44.626;21.182;2023-01-19T00:35:11;56.60;;;12.90;;
58731;SDS011;44508;44.626;21.182;2023-01-19T00:37:37;59.20;;;12.98;;
58731;SDS011;44508;44.626;21.182;2023-01-19T00:40:03;49.13;;;11.57;;
58731;SDS011;44508;44.626;21.182;2023-01-19T00:42:29;47.97;;;11.18;;
58731;SDS011;44508;44.626;21.182;2023-01-19T00:45:08;50.08;;;11.45;;
58731;SDS011;44508;44.626;21.182;2023-01-19T00:47:34;36.88;;;8.85;;
58731;SDS011;44508;44.626;21.182;2023-01-19T00:50:01;46.15;;;8.27;;
58731;SDS011;44508;44.626;21.182;2023-01-19T00:52:27;48.72;;;8.57;;
58731;SDS011;44508;44.626;21.182;2023-01-19T00:54:53;46.83;;;9.23;;
58731;SDS011;44508;44.626;21.182;2023-01-19T00:57:19;44.38;;;9.40;;
58731;SDS011;44508;44.626;21.182;2023-01-19T00:59:45;34.63;;;8.50;;
58731;SDS011;44508;44.626;21.182;2023-01-19T01:02:11;45.08;;;8.18;;
58731;SDS011;44508;44.626;21.182;2023-01-19T01:04:37;32.40;;;7.35;;
58731;SDS011;44508;44.626;21.182;2023-01-19T01:07:03;45.30;;;8.50;;
58731;SDS011;44508;44.626;21.182;2023-01-19T01:09:29;42.15;;;8.55;;
58731;SDS011;44508;44.626;21.182;2023-01-19T01:11:55;43.13;;;7.95;;
58731;SDS011;44508;44.626;21.182;2023-01-19T01:14:22;41.58;;;7.60;;
58731;SDS011;44508;44.626;21.182;2023-01-19T01:16:48;44.97;;;8.32;;
58731;SDS011;44508;44.626;21.182;2023-01-19T01:19:14;37.33;;;8.10;;
58731;SDS011;44508;44.626;21.182;2023-01-19T01:21:40;35.35;;;7.45;;
58731;SDS011;44508;44.626;21.182;2023-01-19T01:24:07;41.90;;;8.52;;
58731;SDS011;44508;44.626;21.182;2023-01-19T01:26:33;39.15;;;8.15;;
58731;SDS011;44508;44.626;21.182;2023-01-19T01:29:00;43.72;;;9.93;;
58731;SDS011;44508;44.626;21.182;2023-01-19T01:31:26;43.38;;;9.20;;
58731;SDS011;44508;44.626;21.182;2023-01-19T01:33:52;43.65;;;9.73;;
58731;SDS011;44508;44.626;21.182;2023-01-19T01:36:18;37.17;;;9.48;;
58731;SDS011;44508;44.626;21.182;2023-01-19T01:38:45;42.80;;;8.48;;
58731;SDS011;44508;44.626;21.182;2023-01-19T01:41:11;37.55;;;8.85;;
58731;SDS011;44508;44.626;21.182;2023-01-19T01:43:50;43.92;;;9.27;;
58731;SDS011;44508;44.626;21.182;2023-01-19T01:46:22;39.05;;;8.35;;
58731;SDS011;44508;44.626;21.182;2023-01-19T01:51:28;47.38;;;9.07;;
58731;SDS011;44508;44.626;21.182;2023-01-19T01:56:47;48.25;;;9.38;;
58731;SDS011;44508;44.626;21.182;2023-01-19T01:59:24;48.80;;;10.73;;
58731;SDS011;44508;44.626;21.182;2023-01-19T02:01:52;40.60;;;9.18;;
58731;SDS011;44508;44.626;21.182;2023-01-19T02:04:38;38.80;;;7.82;;
58731;SDS011;44508;44.626;21.182;2023-01-19T02:07:05;36.05;;;7.38;;
58731;SDS011;44508;44.626;21.182;2023-01-19T02:09:50;32.33;;;7.63;;
58731;SDS011;44508;44.626;21.182;2023-01-19T02:12:35;30.35;;;7.50;;
58731;SDS011;44508;44.626;21.182;2023-01-19T02:15:19;40.03;;;8.10;;
58731;SDS011;44508;44.626;21.182;2023-01-19T02:17:45;33.92;;;8.82;;
58731;SDS011;44508;44.626;21.182;2023-01-19T02:20:12;34.25;;;7.78;;
58731;SDS011;44508;44.626;21.182;2023-01-19T02:22:48;31.13;;;7.78;;
58731;SDS011;44508;44.626;21.182;2023-01-19T02:25:14;29.52;;;7.13;;
58731;SDS011;44508;44.626;21.182;2023-01-19T02:27:41;35.63;;;6.50;;
58731;SDS011;44508;44.626;21.182;2023-01-19T02:30:08;22.92;;;5.55;;
58731;SDS011;44508;44.626;21.182;2023-01-19T02:32:34;18.92;;;5.38;;
58731;SDS011;44508;44.626;21.182;2023-01-19T02:35:01;26.23;;;4.93;;
58731;SDS011;44508;44.626;21.182;2023-01-19T02:37:27;24.38;;;5.78;;
58731;SDS011;44508;44.626;21.182;2023-01-19T02:39:55;17.02;;;4.22;;
58731;SDS011;44508;44.626;21.182;2023-01-19T02:42:33;14.00;;;4.57;;
58731;SDS011;44508;44.626;21.182;2023-01-19T02:45:01;11.35;;;3.72;;
58731;SDS011;44508;44.626;21.182;2023-01-19T02:47:47;10.15;;;3.50;;
58731;SDS011;44508;44.626;21.182;2023-01-19T02:52:59;8.18;;;3.15;;
58731;SDS011;44508;44.626;21.182;2023-01-19T02:55:30;5.38;;;2.60;;
58731;SDS011;44508;44.626;21.182;2023-01-19T03:03:42;5.70;;;2.42;;
58731;SDS011;44508;44.626;21.182;2023-01-19T03:06:19;4.72;;;2.33;;
58731;SDS011;44508;44.626;21.182;2023-01-19T03:08:52;6.95;;;2.35;;
58731;SDS011;44508;44.626;21.182;2023-01-19T03:11:19;5.90;;;2.75;;
58731;SDS011;44508;44.626;21.182;2023-01-19T03:13:48;7.43;;;2.33;;
58731;SDS011;44508;44.626;21.182;2023-01-19T03:16:20;6.35;;;2.38;;
58731;SDS011;44508;44.626;21.182;2023-01-19T03:18:50;5.60;;;2.20;;
58731;SDS011;44508;44.626;21.182;2023-01-19T03:21:20;7.43;;;2.60;;
58731;SDS011;44508;44.626;21.182;2023-01-19T03:23:47;5.70;;;2.20;;
58731;SDS011;44508;44.626;21.182;2023-01-19T03:26:15;5.85;;;2.72;;
58731;SDS011;44508;44.626;21.182;2023-01-19T03:28:42;5.78;;;2.88;;
58731;SDS011;44508;44.626;21.182;2023-01-19T03:31:19;9.00;;;2.42;;
58731;SDS011;44508;44.626;21.182;2023-01-19T03:33:46;3.17;;;1.60;;
58731;SDS011;44508;44.626;21.182;2023-01-19T03:36:15;4.35;;;2.17;;
58731;SDS011;44508;44.626;21.182;2023-01-19T03:38:43;4.53;;;1.98;;
58731;SDS011;44508;44.626;21.182;2023-01-19T03:41:10;5.55;;;2.42;;
58731;SDS011;44508;44.626;21.182;2023-01-19T03:43:37;5.05;;;2.47;;
58731;SDS011;44508;44.626;21.182;2023-01-19T03:46:05;5.95;;;2.47;;
58731;SDS011;44508;44.626;21.182;2023-01-19T03:48:31;5.70;;;2.33;;
58731;SDS011;44508;44.626;21.182;2023-01-19T03:51:01;4.55;;;2.20;;
58731;SDS011;44508;44.626;21.182;2023-01-19T03:53:27;4.28;;;2.70;;
58731;SDS011;44508;44.626;21.182;2023-01-19T03:55:53;5.70;;;2.50;;
58731;SDS011;44508;44.626;21.182;2023-01-19T03:58:19;5.18;;;2.10;;
58731;SDS011;44508;44.626;21.182;2023-01-19T04:00:46;3.67;;;2.15;;
58731;SDS011;44508;44.626;21.182;2023-01-19T04:03:13;3.72;;;2.58;;
58731;SDS011;44508;44.626;21.182;2023-01-19T04:05:39;5.65;;;2.20;;
58731;SDS011;44508;44.626;21.182;2023-01-19T04:08:05;4.13;;;2.00;;
58731;SDS011;44508;44.626;21.182;2023-01-19T04:10:31;4.38;;;2.78;;
58731;SDS011;44508;44.626;21.182;2023-01-19T04:12:58;5.45;;;3.13;;
58731;SDS011;44508;44.626;21.182;2023-01-19T04:15:24;5.68;;;2.60;;
58731;SDS011;44508;44.626;21.182;2023-01-19T04:17:51;6.13;;;2.75;;
58731;SDS011;44508;44.626;21.182;2023-01-19T04:20:17;5.45;;;2.85;;
58731;SDS011;44508;44.626;21.182;2023-01-19T04:22:43;4.85;;;2.50;;
58731;SDS011;44508;44.626;21.182;2023-01-19T04:25:09;4.35;;;2.38;;
58731;SDS011;44508;44.626;21.182;2023-01-19T04:27:35;5.55;;;2.83;;
58731;SDS011;44508;44.626;21.182;2023-01-19T04:30:01;4.10;;;2.30;;
58731;SDS011;44508;44.626;21.182;2023-01-19T04:32:28;6.32;;;2.53;;
58731;SDS011;44508;44.626;21.182;2023-01-19T04:34:54;5.82;;;2.00;;
58731;SDS011;44508;44.626;21.182;2023-01-19T04:37:21;7.00;;;2.03;;
58731;SDS011;44508;44.626;21.182;2023-01-19T04:39:47;13.30;;;4.93;;
58731;SDS011;44508;44.626;21.182;2023-01-19T04:42:13;7.18;;;3.95;;
58731;SDS011;44508;44.626;21.182;2023-01-19T04:44:39;6.53;;;3.45;;
58731;SDS011;44508;44.626;21.182;2023-01-19T04:47:05;3.70;;;2.00;;
58731;SDS011;44508;44.626;21.182;2023-01-19T04:49:31;5.18;;;1.90;;
58731;SDS011;44508;44.626;21.182;2023-01-19T04:51:57;5.30;;;2.40;;
58731;SDS011;44508;44.626;21.182;2023-01-19T04:54:23;12.25;;;4.82;;
58731;SDS011;44508;44.626;21.182;2023-01-19T04:56:49;7.80;;;4.57;;
58731;SDS011;44508;44.626;21.182;2023-01-19T04:59:15;8.13;;;4.40;;
58731;SDS011;44508;44.626;21.182;2023-01-19T05:01:41;7.32;;;3.80;;
58731;SDS011;44508;44.626;21.182;2023-01-19T05:04:07;10.10;;;4.47;;
58731;SDS011;44508;44.626;21.182;2023-01-19T05:06:33;8.07;;;4.22;;
58731;SDS011;44508;44.626;21.182;2023-01-19T05:09:00;11.65;;;5.50;;
58731;SDS011;44508;44.626;21.182;2023-01-19T05:11:26;14.85;;;8.15;;
58731;SDS011;44508;44.626;21.182;2023-01-19T05:13:52;13.60;;;7.47;;
58731;SDS011;44508;44.626;21.182;2023-01-19T05:16:18;17.42;;;7.38;;
58731;SDS011;44508;44.626;21.182;2023-01-19T05:18:44;14.73;;;8.52;;
58731;SDS011;44508;44.626;21.182;2023-01-19T05:21:10;16.15;;;8.88;;
58731;SDS011;44508;44.626;21.182;2023-01-19T05:23:36;15.32;;;8.85;;
58731;SDS011;44508;44.626;21.182;2023-01-19T05:26:02;8.98;;;5.50;;
58731;SDS011;44508;44.626;21.182;2023-01-19T05:28:29;8.68;;;3.90;;
58731;SDS011;44508;44.626;21.182;2023-01-19T05:30:55;10.40;;;4.95;;
58731;SDS011;44508;44.626;21.182;2023-01-19T05:33:21;10.93;;;6.07;;
58731;SDS011;44508;44.626;21.182;2023-01-19T05:35:51;19.38;;;7.38;;
58731;SDS011;44508;44.626;21.182;2023-01-19T05:38:17;12.60;;;6.97;;
58731;SDS011;44508;44.626;21.182;2023-01-19T05:40:43;16.58;;;7.68;;
58731;SDS011;44508;44.626;21.182;2023-01-19T05:43:10;14.05;;;6.22;;
58731;SDS011;44508;44.626;21.182;2023-01-19T05:45:36;13.75;;;7.30;;
58731;SDS011;44508;44.626;21.182;2023-01-19T05:48:06;15.35;;;6.70;;
58731;SDS011;44508;44.626;21.182;2023-01-19T05:50:32;18.83;;;6.60;;
58731;SDS011;44508;44.626;21.182;2023-01-19T05:52:59;13.38;;;5.25;;
58731;SDS011;44508;44.626;21.182;2023-01-19T05:55:25;11.23;;;4.80;;
58731;SDS011;44508;44.626;21.182;2023-01-19T05:57:51;14.45;;;5.88;;
58731;SDS011;44508;44.626;21.182;2023-01-19T06:00:17;15.00;;;7.80;;
58731;SDS011;44508;44.626;21.182;2023-01-19T06:02:44;14.00;;;7.07;;
58731;SDS011;44508;44.626;21.182;2023-01-19T06:05:13;11.85;;;5.40;;
58731;SDS011;44508;44.626;21.182;2023-01-19T06:07:39;12.80;;;4.95;;
58731;SDS011;44508;44.626;21.182;2023-01-19T06:10:05;10.55;;;5.45;;
58731;SDS011;44508;44.626;21.182;2023-01-19T06:12:32;12.13;;;7.10;;
58731;SDS011;44508;44.626;21.182;2023-01-19T06:14:58;15.32;;;6.30;;
58731;SDS011;44508;44.626;21.182;2023-01-19T06:17:24;8.68;;;4.07;;
58731;SDS011;44508;44.626;21.182;2023-01-19T06:19:50;13.45;;;5.90;;
58731;SDS011;44508;44.626;21.182;2023-01-19T06:22:16;11.60;;;6.60;;
58731;SDS011;44508;44.626;21.182;2023-01-19T06:24:42;9.57;;;4.35;;
58731;SDS011;44508;44.626;21.182;2023-01-19T06:27:08;15.68;;;6.82;;
58731;SDS011;44508;44.626;21.182;2023-01-19T06:29:35;12.95;;;5.55;;
58731;SDS011;44508;44.626;21.182;2023-01-19T06:32:01;13.48;;;6.03;;
58731;SDS011;44508;44.626;21.182;2023-01-19T06:34:27;10.02;;;4.03;;
58731;SDS011;44508;44.626;21.182;2023-01-19T06:36:54;7.13;;;3.92;;
58731;SDS011;44508;44.626;21.182;2023-01-19T06:39:20;6.88;;;2.50;;
58731;SDS011;44508;44.626;21.182;2023-01-19T06:41:46;7.93;;;2.90;;
58731;SDS011;44508;44.626;21.182;2023-01-19T06:44:12;8.30;;;3.30;;
58731;SDS011;44508;44.626;21.182;2023-01-19T06:46:39;11.95;;;4.53;;
58731;SDS011;44508;44.626;21.182;2023-01-19T06:49:05;11.18;;;4.22;;
58731;SDS011;44508;44.626;21.182;2023-01-19T06:51:34;12.20;;;4.45;;
58731;SDS011;44508;44.626;21.182;2023-01-19T06:54:01;10.05;;;4.43;;
58731;SDS011;44508;44.626;21.182;2023-01-19T06:56:27;12.15;;;4.05;;
58731;SDS011;44508;44.626;21.182;2023-01-19T06:58:53;10.52;;;4.22;;
58731;SDS011;44508;44.626;21.182;2023-01-19T07:01:19;12.85;;;4.55;;
58731;SDS011;44508;44.626;21.182;2023-01-19T07:03:45;12.25;;;5.78;;
58731;SDS011;44508;44.626;21.182;2023-01-19T07:06:12;20.15;;;9.38;;
58731;SDS011;44508;44.626;21.182;2023-01-19T07:08:38;29.27;;;12.70;;
58731;SDS011;44508;44.626;21.182;2023-01-19T07:11:08;27.25;;;14.15;;
58731;SDS011;44508;44.626;21.182;2023-01-19T07:13:35;25.50;;;11.80;;
58731;SDS011;44508;44.626;21.182;2023-01-19T07:16:08;23.13;;;8.95;;
58731;SDS011;44508;44.626;21.182;2023-01-19T07:18:35;20.90;;;8.13;;
58731;SDS011;44508;44.626;21.182;2023-01-19T07:21:01;23.00;;;7.88;;
58731;SDS011;44508;44.626;21.182;2023-01-19T07:23:27;18.75;;;6.85;;
58731;SDS011;44508;44.626;21.182;2023-01-19T07:25:57;18.90;;;6.75;;
58731;SDS011;44508;44.626;21.182;2023-01-19T07:28:27;21.23;;;6.38;;
58731;SDS011;44508;44.626;21.182;2023-01-19T07:30:53;18.30;;;6.07;;
58731;SDS011;44508;44.626;21.182;2023-01-19T07:33:20;16.58;;;4.55;;
58731;SDS011;44508;44.626;21.182;2023-01-19T07:35:47;15.82;;;4.38;;
58731;SDS011;44508;44.626;21.182;2023-01-19T07:38:14;13.82;;;4.85;;
58731;SDS011;44508;44.626;21.182;2023-01-19T07:40:40;19.05;;;4.68;;
58731;SDS011;44508;44.626;21.182;2023-01-19T07:43:06;13.43;;;4.30;;
58731;SDS011;44508;44.626;21.182;2023-01-19T07:45:33;15.32;;;5.57;;
58731;SDS011;44508;44.626;21.182;2023-01-19T07:48:00;11.32;;;4.88;;
58731;SDS011;44508;44.626;21.182;2023-01-19T07:50:26;10.65;;;4.15;;
58731;SDS011;44508;44.626;21.182;2023-01-19T07:52:53;19.45;;;6.32;;
58731;SDS011;44508;44.626;21.182;2023-01-19T07:55:19;15.75;;;6.07;;
58731;SDS011;44508;44.626;21.182;2023-01-19T07:57:48;25.10;;;6.85;;
58731;SDS011;44508;44.626;21.182;2023-01-19T08:00:15;19.27;;;6.90;;
58731;SDS011;44508;44.626;21.182;2023-01-19T08:02:43;18.90;;;6.32;;
58731;SDS011;44508;44.626;21.182;2023-01-19T08:05:09;21.95;;;7.50;;
58731;SDS011;44508;44.626;21.182;2023-01-19T08:07:36;18.90;;;6.78;;
58731;SDS011;44508;44.626;21.182;2023-01-19T08:10:02;23.23;;;6.95;;
58731;SDS011;44508;44.626;21.182;2023-01-19T08:12:28;21.17;;;6.65;;
58731;SDS011;44508;44.626;21.182;2023-01-19T08:14:54;19.63;;;6.63;;
58731;SDS011;44508;44.626;21.182;2023-01-19T08:17:20;18.83;;;7.07;;
58731;SDS011;44508;44.626;21.182;2023-01-19T08:19:46;13.90;;;6.10;;
58731;SDS011;44508;44.626;21.182;2023-01-19T08:22:12;17.33;;;5.13;;
58731;SDS011;44508;44.626;21.182;2023-01-19T08:24:38;12.45;;;5.03;;
58731;SDS011;44508;44.626;21.182;2023-01-19T08:27:04;16.10;;;4.80;;
58731;SDS011;44508;44.626;21.182;2023-01-19T08:29:30;11.95;;;4.70;;
58731;SDS011;44508;44.626;21.182;2023-01-19T08:31:57;7.88;;;4.00;;
58731;SDS011;44508;44.626;21.182;2023-01-19T08:34:26;10.77;;;4.40;;
58731;SDS011;44508;44.626;21.182;2023-01-19T08:36:52;10.98;;;5.63;;
58731;SDS011;44508;44.626;21.182;2023-01-19T08:39:18;13.40;;;5.38;;
58731;SDS011;44508;44.626;21.182;2023-01-19T08:41:44;8.77;;;5.07;;
58731;SDS011;44508;44.626;21.182;2023-01-19T08:44:10;12.77;;;4.07;;
58731;SDS011;44508;44.626;21.182;2023-01-19T08:46:36;10.00;;;4.78;;
58731;SDS011;44508;44.626;21.182;2023-01-19T08:49:02;7.47;;;3.92;;
58731;SDS011;44508;44.626;21.182;2023-01-19T08:51:28;7.90;;;4.40;;
58731;SDS011;44508;44.626;21.182;2023-01-19T08:53:54;8.38;;;4.25;;
58731;SDS011;44508;44.626;21.182;2023-01-19T08:56:20;8.90;;;5.93;;
58731;SDS011;44508;44.626;21.182;2023-01-19T08:58:46;12.98;;;6.00;;
58731;SDS011;44508;44.626;21.182;2023-01-19T09:01:13;56.72;;;23.75;;
58731;SDS011;44508;44.626;21.182;2023-01-19T09:03:40;16.33;;;7.30;;
58731;SDS011;44508;44.626;21.182;2023-01-19T09:06:07;9.23;;;5.95;;
58731;SDS011;44508;44.626;21.182;2023-01-19T09:08:34;10.48;;;5.60;;
58731;SDS011;44508;44.626;21.182;2023-01-19T09:11:00;10.60;;;5.50;;
58731;SDS011;44508;44.626;21.182;2023-01-19T09:13:26;12.23;;;5.93;;
58731;SDS011;44508;44.626;21.182;2023-01-19T09:15:52;13.93;;;5.72;;
58731;SDS011;44508;44.626;21.182;2023-01-19T09:18:20;11.18;;;5.38;;
58731;SDS011;44508;44.626;21.182;2023-01-19T09:20:47;9.05;;;4.95;;
58731;SDS011;44508;44.626;21.182;2023-01-19T09:23:14;9.82;;;4.93;;
58731;SDS011;44508;44.626;21.182;2023-01-19T09:25:41;8.30;;;4.18;;
58731;SDS011;44508;44.626;21.182;2023-01-19T09:28:08;12.55;;;6.80;;
58731;SDS011;44508;44.626;21.182;2023-01-19T09:30:35;10.02;;;5.20;;
58731;SDS011;44508;44.626;21.182;2023-01-19T09:33:02;13.80;;;5.72;;
58731;SDS011;44508;44.626;21.182;2023-01-19T09:35:31;12.77;;;5.57;;
58731;SDS011;44508;44.626;21.182;2023-01-19T09:37:57;11.15;;;4.60;;
58731;SDS011;44508;44.626;21.182;2023-01-19T09:40:23;15.70;;;5.55;;
58731;SDS011;44508;44.626;21.182;2023-01-19T09:42:50;15.57;;;5.20;;
58731;SDS011;44508;44.626;21.182;2023-01-19T09:45:18;11.57;;;4.32;;
58731;SDS011;44508;44.626;21.182;2023-01-19T09:47:47;15.50;;;5.15;;
58731;SDS011;44508;44.626;21.182;2023-01-19T09:50:20;12.07;;;4.95;;
58731;SDS011;44508;44.626;21.182;2023-01-19T09:52:53;15.13;;;6.47;;
58731;SDS011;44508;44.626;21.182;2023-01-19T09:55:22;14.35;;;5.70;;
58731;SDS011;44508;44.626;21.182;2023-01-19T09:57:50;10.73;;;4.72;;
58731;SDS011;44508;44.626;21.182;2023-01-19T10:00:16;16.45;;;6.40;;
58731;SDS011;44508;44.626;21.182;2023-01-19T10:02:47;9.93;;;5.82;;
58731;SDS011;44508;44.626;21.182;2023-01-19T10:05:24;14.13;;;6.03;;
58731;SDS011;44508;44.626;21.182;2023-01-19T10:07:55;12.15;;;5.15;;
58731;SDS011;44508;44.626;21.182;2023-01-19T10:10:27;17.73;;;4.68;;
58731;SDS011;44508;44.626;21.182;2023-01-19T10:12:57;13.80;;;5.40;;
58731;SDS011;44508;44.626;21.182;2023-01-19T10:26:05;10.85;;;4.75;;
58731;SDS011;44508;44.626;21.182;2023-01-19T10:28:33;15.82;;;5.72;;
58731;SDS011;44508;44.626;21.182;2023-01-19T10:31:00;17.35;;;5.68;;
58731;SDS011;44508;44.626;21.182;2023-01-19T10:33:28;15.18;;;5.03;;
58731;SDS011;44508;44.626;21.182;2023-01-19T10:35:55;10.00;;;4.32;;
58731;SDS011;44508;44.626;21.182;2023-01-19T10:38:21;11.55;;;4.80;;
58731;SDS011;44508;44.626;21.182;2023-01-19T10:40:52;16.45;;;5.50;;
58731;SDS011;44508;44.626;21.182;2023-01-19T10:43:36;13.65;;;4.85;;
58731;SDS011;44508;44.626;21.182;2023-01-19T10:48:41;13.63;;;5.10;;
58731;SDS011;44508;44.626;21.182;2023-01-19T10:51:09;13.00;;;4.85;;
58731;SDS011;44508;44.626;21.182;2023-01-19T10:53:35;14.02;;;5.20;;
58731;SDS011;44508;44.626;21.182;2023-01-19T10:56:15;11.43;;;4.43;;
58731;SDS011;44508;44.626;21.182;2023-01-19T10:58:41;11.10;;;4.50;;
58731;SDS011;44508;44.626;21.182;2023-01-19T11:01:15;9.48;;;3.95;;
58731;SDS011;44508;44.626;21.182;2023-01-19T11:03:42;14.88;;;4.85;;
58731;SDS011;44508;44.626;21.182;2023-01-19T11:06:17;10.18;;;3.97;;
58731;SDS011;44508;44.626;21.182;2023-01-19T11:08:44;12.73;;;4.75;;
58731;SDS011;44508;44.626;21.182;2023-01-19T11:11:11;8.15;;;4.35;;
58731;SDS011;44508;44.626;21.182;2023-01-19T11:13:40;6.60;;;3.20;;
58731;SDS011;44508;44.626;21.182;2023-01-19T11:16:24;12.18;;;3.65;;
58731;SDS011;44508;44.626;21.182;2023-01-19T11:18:51;17.10;;;3.90;;
58731;SDS011;44508;44.626;21.182;2023-01-19T11:21:18;8.40;;;4.32;;
58731;SDS011;44508;44.626;21.182;2023-01-19T11:23:51;11.98;;;4.28;;
58731;SDS011;44508;44.626;21.182;2023-01-19T11:29:02;11.13;;;3.78;;
58731;SDS011;44508;44.626;21.182;2023-01-19T11:31:33;11.05;;;4.57;;
58731;SDS011;44508;44.626;21.182;2023-01-19T11:34:00;9.18;;;3.90;;
58731;SDS011;44508;44.626;21.182;2023-01-19T11:36:34;14.20;;;4.45;;
58731;SDS011;44508;44.626;21.182;2023-01-19T11:39:22;8.57;;;4.32;;
58731;SDS011;44508;44.626;21.182;2023-01-19T11:41:51;10.45;;;5.38;;
58731;SDS011;44508;44.626;21.182;2023-01-19T11:47:04;12.65;;;5.07;;
58731;SDS011;44508;44.626;21.182;2023-01-19T11:49:44;12.02;;;5.18;;
58731;SDS011;44508;44.626;21.182;2023-01-19T11:55:29;9.40;;;4.90;;
58731;SDS011;44508;44.626;21.182;2023-01-19T11:57:35;9.75;;;4.93;;
58731;SDS011;44508;44.626;21.182;2023-01-19T12:00:18;13.75;;;4.55;;
58731;SDS011;44508;44.626;21.182;2023-01-19T12:02:47;10.00;;;4.68;;
58731;SDS011;44508;44.626;21.182;2023-01-19T12:05:15;13.68;;;5.43;;
58731;SDS011;44508;44.626;21.182;2023-01-19T12:07:43;12.82;;;7.60;;
58731;SDS011;44508;44.626;21.182;2023-01-19T12:10:29;9.15;;;5.20;;
58731;SDS011;44508;44.626;21.182;2023-01-19T12:12:56;11.50;;;5.95;;
58731;SDS011;44508;44.626;21.182;2023-01-19T12:17:49;12.02;;;5.93;;
58731;SDS011;44508;44.626;21.182;2023-01-19T12:22:46;16.10;;;6.55;;
58731;SDS011;44508;44.626;21.182;2023-01-19T12:25:24;11.52;;;6.40;;
58731;SDS011;44508;44.626;21.182;2023-01-19T12:27:54;11.00;;;5.50;;
58731;SDS011;44508;44.626;21.182;2023-01-19T12:30:24;8.52;;;5.57;;
58731;SDS011;44508;44.626;21.182;2023-01-19T12:32:51;7.68;;;5.13;;
58731;SDS011;44508;44.626;21.182;2023-01-19T12:38:08;10.20;;;5.30;;
58731;SDS011;44508;44.626;21.182;2023-01-19T12:40:47;9.75;;;6.07;;
58731;SDS011;44508;44.626;21.182;2023-01-19T12:43:13;8.52;;;5.07;;
58731;SDS011;44508;44.626;21.182;2023-01-19T12:45:41;13.10;;;5.55;;
58731;SDS011;44508;44.626;21.182;2023-01-19T12:48:22;11.75;;;6.30;;
58731;SDS011;44508;44.626;21.182;2023-01-19T12:50:49;11.30;;;6.03;;
58731;SDS011;44508;44.626;21.182;2023-01-19T12:53:16;17.30;;;7.30;;
58731;SDS011;44508;44.626;21.182;2023-01-19T12:55:43;12.98;;;6.57;;
58731;SDS011;44508;44.626;21.182;2023-01-19T12:58:15;11.02;;;5.95;;
58731;SDS011;44508;44.626;21.182;2023-01-19T13:00:43;12.40;;;6.15;;
58731;SDS011;44508;44.626;21.182;2023-01-19T13:15:47;9.88;;;5.72;;
58731;SDS011;44508;44.626;21.182;2023-01-19T13:18:17;8.20;;;4.80;;
58731;SDS011;44508;44.626;21.182;2023-01-19T13:20:49;11.02;;;4.10;;
58731;SDS011;44508;44.626;21.182;2023-01-19T13:23:19;8.38;;;4.40;;
58731;SDS011;44508;44.626;21.182;2023-01-19T13:25:46;10.75;;;4.53;;
58731;SDS011;44508;44.626;21.182;2023-01-19T13:28:13;11.07;;;5.53;;
58731;SDS011;44508;44.626;21.182;2023-01-19T13:30:47;10.25;;;5.25;;
58731;SDS011;44508;44.626;21.182;2023-01-19T13:33:18;8.13;;;4.43;;
58731;SDS011;44508;44.626;21.182;2023-01-19T13:35:49;8.13;;;4.43;;
58731;SDS011;44508;44.626;21.182;2023-01-19T13:38:16;9.75;;;4.60;;
58731;SDS011;44508;44.626;21.182;2023-01-19T13:40:42;7.13;;;4.60;;
58731;SDS011;44508;44.626;21.182;2023-01-19T13:43:13;9.95;;;5.53;;
58731;SDS011;44508;44.626;21.182;2023-01-19T13:45:44;13.70;;;6.75;;
58731;SDS011;44508;44.626;21.182;2023-01-19T13:48:13;15.18;;;7.30;;
58731;SDS011;44508;44.626;21.182;2023-01-19T13:50:40;12.23;;;7.03;;
58731;SDS011;44508;44.626;21.182;2023-01-19T13:53:18;12.32;;;6.47;;
58731;SDS011;44508;44.626;21.182;2023-01-19T13:55:45;15.07;;;7.80;;
58731;SDS011;44508;44.626;21.182;2023-01-19T13:58:21;20.80;;;11.50;;
58731;SDS011;44508;44.626;21.182;2023-01-19T14:00:48;25.77;;;15.25;;
58731;SDS011;44508;44.626;21.182;2023-01-19T14:05:42;25.15;;;14.75;;
58731;SDS011;44508;44.626;21.182;2023-01-19T14:10:38;14.23;;;6.47;;
58731;SDS011;44508;44.626;21.182;2023-01-19T14:13:10;23.55;;;10.80;;
58731;SDS011;44508;44.626;21.182;2023-01-19T14:15:37;29.17;;;15.77;;
58731;SDS011;44508;44.626;21.182;2023-01-19T14:20:33;27.67;;;15.82;;
58731;SDS011;44508;44.626;21.182;2023-01-19T14:23:02;29.10;;;19.45;;
58731;SDS011;44508;44.626;21.182;2023-01-19T14:25:29;36.55;;;23.02;;
58731;SDS011;44508;44.626;21.182;2023-01-19T14:30:51;79.30;;;50.63;;
58731;SDS011;44508;44.626;21.182;2023-01-19T14:38:44;104.68;;;64.25;;
58731;SDS011;44508;44.626;21.182;2023-01-19T14:41:10;102.95;;;61.80;;
58731;SDS011;44508;44.626;21.182;2023-01-19T14:43:41;83.93;;;55.70;;
58731;SDS011;44508;44.626;21.182;2023-01-19T14:46:13;68.10;;;43.35;;
58731;SDS011;44508;44.626;21.182;2023-01-19T14:48:43;56.67;;;39.15;;
58731;SDS011;44508;44.626;21.182;2023-01-19T14:51:11;66.00;;;38.53;;
58731;SDS011;44508;44.626;21.182;2023-01-19T14:53:44;56.60;;;36.28;;
58731;SDS011;44508;44.626;21.182;2023-01-19T14:56:12;54.05;;;34.22;;
58731;SDS011;44508;44.626;21.182;2023-01-19T14:58:48;53.90;;;34.58;;
58731;SDS011;44508;44.626;21.182;2023-01-19T15:01:14;55.38;;;35.95;;
58731;SDS011;44508;44.626;21.182;2023-01-19T15:03:40;118.55;;;73.15;;
58731;SDS011;44508;44.626;21.182;2023-01-19T15:06:08;121.13;;;73.68;;
58731;SDS011;44508;44.626;21.182;2023-01-19T15:08:35;203.55;;;120.90;;
58731;SDS011;44508;44.626;21.182;2023-01-19T15:13:52;234.23;;;139.23;;
58731;SDS011;44508;44.626;21.182;2023-01-19T15:16:19;238.65;;;142.18;;
58731;SDS011;44508;44.626;21.182;2023-01-19T15:18:46;246.23;;;145.43;;
58731;SDS011;44508;44.626;21.182;2023-01-19T15:21:16;280.38;;;161.20;;
58731;SDS011;44508;44.626;21.182;2023-01-19T15:23:47;250.93;;;151.40;;
58731;SDS011;44508;44.626;21.182;2023-01-19T15:26:17;251.30;;;150.32;;
58731;SDS011;44508;44.626;21.182;2023-01-19T15:28:45;240.95;;;144.68;;
58731;SDS011;44508;44.626;21.182;2023-01-19T15:31:19;227.75;;;141.77;;
58731;SDS011;44508;44.626;21.182;2023-01-19T15:33:45;203.40;;;124.32;;
58731;SDS011;44508;44.626;21.182;2023-01-19T15:36:12;188.05;;;113.60;;
58731;SDS011;44508;44.626;21.182;2023-01-19T15:38:38;179.63;;;109.82;;
58731;SDS011;44508;44.626;21.182;2023-01-19T15:41:09;159.60;;;101.97;;